Station info - map view · info · telemetry · weather · raw · status · beacons · messages · bulletins · browse · moving · my account
Callsign, ship name or locator: Clear       
It is possible to search using wildcards (*?) after a prefix. Example: OH*
APRS station 9M2TPT-8 - show graphs
Map loading...
Comment: 439.600MHz
Mic-E message: En route
Location: 3°12.86' N 101°33.38' E - locator OJ03SF61SK - show map - static map
4.7 miles North bearing 20° from Kampung Baru Subang, Selangor, Malaysia [?]
8.2 miles Northwest bearing 335° from Petaling Jaya, Petaling, Selangor, Malaysia
10.3 miles Northwest bearing 299° from Kuala Lumpur, Kuala Lumpur, Malaysia
14.5 miles Northeast bearing 30° from Klang, Selangor, Malaysia
Last position: 2017-06-28 10:04:55 EDT (22h27m ago)
2017-06-28 22:04:55 MYT local time at Kampung Baru Subang, Malaysia [?]
Altitude: 184 ft
Course: 133°
Speed: 18 MPH
Device: Yaesu: FTM-400DR (rig)
Last path: 9M2TPT-8>PS1RX6 via WIDE1-1,WIDE2-1,qAR,9W2VIS-2 (good)
Positions stored: 22166
Packet rate: 64 seconds between packets on average during 1591 seconds.
Other SSIDs: 9M2TPT-1 9M2TPT-10 9M2TPT-13 9M2TPT-5 9M2TPT-7 9M2TPT-9
Stations near current position of 9M2TPT-8 - show more
callsign distance last heard - EDT      callsign distance last heard - EDT
9M2TPT-130.4 miles 213°2017-06-29 08:28:20 9W2DIE-61.2 miles 221°2017-06-23 00:49:06
9W2DIE-11.2 miles 221°2017-06-29 08:30:24 9W2DIE-71.2 miles 221°2017-06-23 03:31:55
9W2WBP-52.8 miles 112°2017-06-29 05:43:32 9W2VXP-83.4 miles 322°2017-06-17 11:04:58
9W2ZSU-93.7 miles 199°2017-06-27 01:03:18 9W2ZSU-13.7 miles 200°2017-06-29 08:31:23
9W2EKR-94.2 miles 144°2017-06-13 03:32:25 9M2CJ-94.2 miles 95°2017-06-29 03:37:51
9W2RUT-54.5 miles 82°2017-06-25 06:14:24 9M2RKL-34.6 miles 124°2017-06-29 07:51:08
9M2RKK-34.6 miles 130°2017-06-29 08:20:29 9M4GCJ-14.7 miles 84°2017-06-29 08:31:00
9W2GD-94.7 miles 84°2017-06-23 13:50:56 9M2CJ-125.1 miles 94°2017-06-27 05:07:04
9W2TEA-75.5 miles 147°2017-06-23 08:51:07 WMSA5.6 miles 184°2017-06-29 08:00:14
9W2SAN-56.4 miles 4°2017-06-07 05:29:31 9M2PJU7.2 miles 312°2017-06-29 08:25:15
Stations which heard 9M2TPT-8 directly on radio –
callsign pkts first heard - EDT last heard longest (tx => rx) longest at - EDT
9M4RDG-3 23 2017-06-03 03:06:12 2017-06-27 05:34:01 OJ02VT > OJ03VK 42.9 miles 359° 2017-06-03 03:54:10
9W2ALS-3 2 2017-06-03 16:44:32 2017-06-03 20:10:01 OJ11TM > OJ11VN 7.8 miles 75° 2017-06-03 20:10:01
9W2BPA-1 61 2017-06-03 05:30:54 2017-06-26 21:29:25 OJ12HB > OJ11LU 28.1 miles 122° 2017-06-26 21:29:25
9W2RLW-5 26 2017-06-03 07:05:39 2017-06-04 01:05:47 OJ11TN > OJ11UL 7.2 miles 128° 2017-06-04 01:02:15
9W2LUX-1 2 2017-06-03 20:03:39 2017-06-03 20:09:26 OJ11TM > OJ11VM 7.6 miles 99° 2017-06-03 20:09:26
9M4GCJ-1 93 2017-06-03 02:03:38 2017-06-28 10:01:37 OJ03UC > OJ03TF 11.5 miles 319° 2017-06-03 03:25:23
9M4RTB-3 26 2017-06-03 03:45:56 2017-06-26 23:29:39 OJ03TE > OJ12AU 39.7 miles 130° 2017-06-14 19:23:48
9M2RKK-3 412 2017-06-03 02:05:04 2017-06-28 10:02:38 JI06AT > OJ03TE 7025.5 miles 87° 2017-06-20 19:06:52
9M4RGP-3 64 2017-06-03 05:30:20 2017-06-04 03:39:00 OJ12KB > OJ11SO 55.3 miles 126° 2017-06-03 05:30:20
9W2EDK-2 57 2017-06-03 03:35:22 2017-06-26 23:56:04 OJ03TC > OJ02TW 11.9 miles 183° 2017-06-04 06:11:45
9W2SVT-1 2 2017-06-03 03:24:49 2017-06-20 04:59:26 OJ03UF > OJ03UC 8.9 miles 162° 2017-06-20 04:59:26
9M2ZAK-1 7 2017-06-04 01:20:55 2017-06-04 03:18:53 OJ11TO > OJ11TP 5.0 miles 15° 2017-06-04 03:18:53
9W2HFI-1 2 2017-06-03 23:59:04 2017-06-04 01:15:11 OJ11TN > OJ11VO 14.0 miles 71° 2017-06-03 23:59:04
9M2RGL-3 91 2017-06-03 04:32:42 2017-06-26 22:46:41 OJ11PT > OJ12HI 60.0 miles 308° 2017-06-04 03:41:25
9W2FZW-3 2 2017-06-03 20:06:36 2017-06-03 23:55:36 OJ11TN > OJ11UM 2.9 miles 116° 2017-06-03 23:55:36
9W2USM-1 16 2017-06-22 11:46:44 2017-06-22 12:14:01 OJ12EE > OJ12DF 7.5 miles 290° 2017-06-22 12:14:01
9M4RJN-3 35 2017-06-03 05:45:45 2017-06-26 22:33:14 OJ12CI > OJ11LT 61.2 miles 128° 2017-06-26 22:33:14
9W2IMU-1 280 2017-06-03 02:23:58 2017-06-27 05:51:44 OJ03SF > OJ03UE 12.1 miles 103° 2017-06-19 19:02:14
9W2VIS-2 6 2017-06-20 11:31:01 2017-06-28 10:04:55 OJ03TE > OJ03QB 15.1 miles 240° 2017-06-28 09:53:51
9W2WBP-1 6 2017-06-12 19:27:28 2017-06-16 04:54:59 OJ03UF > OJ02SX 20.0 miles 207° 2017-06-13 19:34:42
9M4RML-3 21 2017-06-03 04:49:08 2017-06-26 22:44:19 OJ12BL > OJ12DF 17.3 miles 150° 2017-06-26 22:44:19
9M2TEE-10 8 2017-06-22 11:43:14 2017-06-22 12:00:09 OJ12DG > OJ12DF 3.8 miles 223° 2017-06-22 11:43:14
9M4RHE-3 11 2017-06-03 04:53:50 2017-06-26 22:34:22 OJ12CK > OJ12DE 16.1 miles 171° 2017-06-22 11:31:30
9M4RJB-3 2 2017-06-03 07:03:54 2017-06-03 08:02:49 OJ11TM > OJ11UL 9.0 miles 123° 2017-06-03 08:02:49
9W2HHC-10 11 2017-06-03 04:50:18 2017-06-04 04:55:46 OJ12EG > OJ12CF 11.4 miles 257° 2017-06-04 04:42:46

Only position packets which were originated by the station are shown here. The range statistics show some extra long hops, because some digipeaters do not correctly add themselves to the digipeater path. Please check the raw packets.
About this site
This page shows real-time information collected from the Automatic Position Reporting System Internet network (APRS-IS). APRS is used by amateur (ham) radio operators to transmit real-time position information, weather data, telemetry and messages over the radio. A vehicle equipped with a GPS receiver, a VHF transmitter or HF transceiver and a small computer device called a tracker transmits it's location, speed and course in a small data packet, which is then received by a nearby iGate receiving site which forwards the packet on the Internet. Systems connected to the Internet can send information on the APRS-IS without a radio transmitter, or collect and display information transmitted anywhere in the world.
FAQ · Blog · Discussion group · Linking to aprs.fi · AIS sites · Service status · Database statistics · Advertising on aprs.fi · Technical details · API · Change log · Planned changes · Credits and thanks · Terms Of Service · iPhone/iPad APRS